Terminal Aerodrome Forecast
Issued by NWS

Home | Current Version | Previous Version | Text Only | Print | Product List | Glossary On
Versions: 1 2 3 4 5 6 7 8 9 10 11 12 13 14 15 16 17
000
FTUS41 KPBZ 250500
TAFBVI
TAF
KBVI 250525Z 2506/2606 10004KT P6SM OVC150
     FM251600 15010G18KT 4SM -SHRA OVC020
     FM251900 17010G18KT 4SM -SHRA OVC010
     FM252200 28012G22KT P6SM BKN020
     FM260300 28008KT P6SM SCT020
      AMD NOT SKED=

USA.gov is the U.S. government's official web portal to all federal, state and local government web resources and services.